createdAt,value
2022-12-08T00:00:11.883Z,29.30
2022-12-08T00:01:11.875Z,27.90
2022-12-08T00:02:12.029Z,30.50
2022-12-08T00:03:11.958Z,34.10
2022-12-08T00:04:11.954Z,30.50
2022-12-08T00:05:11.790Z,31.70
2022-12-08T00:06:11.800Z,29.70
2022-12-08T00:07:11.754Z,31.70
2022-12-08T00:08:11.760Z,30.20
2022-12-08T00:09:11.824Z,30.00
2022-12-08T00:10:46.412Z,30.10
2022-12-08T00:11:13.694Z,31.30
2022-12-08T00:12:11.703Z,32.40
2022-12-08T00:13:11.702Z,29.10
2022-12-08T00:14:11.677Z,27.60
2022-12-08T00:15:11.628Z,30.40
2022-12-08T00:16:11.636Z,31.50
2022-12-08T00:17:11.607Z,30.20
2022-12-08T00:18:11.584Z,34.00
2022-12-08T00:19:11.591Z,27.10
2022-12-08T00:20:43.917Z,28.60
2022-12-08T00:21:11.539Z,29.70
2022-12-08T00:22:11.526Z,30.00
2022-12-08T00:23:11.519Z,30.20
2022-12-08T00:24:11.506Z,33.20
2022-12-08T00:25:11.477Z,29.50
2022-12-08T00:26:11.451Z,30.10
2022-12-08T00:27:11.419Z,27.40
2022-12-08T00:28:11.513Z,30.00
2022-12-08T00:29:17.161Z,28.90
2022-12-08T00:30:13.398Z,27.90
2022-12-08T00:31:11.361Z,26.40
2022-12-08T00:32:11.397Z,30.40
2022-12-08T00:33:11.328Z,25.60
2022-12-08T00:34:11.335Z,28.80
2022-12-08T00:35:11.281Z,28.80
2022-12-08T00:36:11.284Z,28.20
2022-12-08T00:37:11.261Z,25.70
2022-12-08T00:38:11.247Z,24.60
2022-12-08T00:39:11.249Z,27.90
2022-12-08T00:40:11.208Z,27.90
2022-12-08T00:41:11.180Z,25.10
2022-12-08T00:42:11.176Z,22.70
2022-12-08T00:43:11.169Z,25.80
2022-12-08T00:44:11.169Z,26.30
2022-12-08T00:45:11.130Z,23.80
2022-12-08T00:46:11.159Z,23.20
2022-12-08T00:47:11.105Z,27.30
2022-12-08T00:48:11.067Z,29.30
2022-12-08T00:49:11.082Z,29.60
2022-12-08T00:50:11.026Z,26.00
2022-12-08T00:51:11.025Z,25.70
2022-12-08T00:52:10.995Z,23.80
2022-12-08T00:53:10.989Z,25.50
2022-12-08T00:54:10.992Z,25.80
2022-12-08T00:55:10.951Z,28.10
2022-12-08T00:56:10.927Z,24.90
2022-12-08T00:57:10.917Z,26.90
2022-12-08T00:58:10.897Z,25.40
2022-12-08T00:59:10.907Z,24.80
2022-12-08T01:00:10.861Z,25.00
2022-12-08T01:01:10.909Z,27.40
2022-12-08T01:02:10.824Z,25.10
2022-12-08T01:03:10.898Z,25.10
2022-12-08T01:04:10.817Z,28.00
2022-12-08T01:05:10.772Z,29.50
2022-12-08T01:06:10.769Z,25.00
2022-12-08T01:07:10.746Z,25.70
2022-12-08T01:08:10.784Z,27.40
2022-12-08T01:09:10.741Z,26.50
2022-12-08T01:10:10.699Z,26.10
2022-12-08T01:11:10.674Z,26.50
2022-12-08T01:12:10.660Z,26.80
2022-12-08T01:13:10.638Z,27.90
2022-12-08T01:14:10.661Z,28.20
2022-12-08T01:15:10.617Z,26.50
2022-12-08T01:16:10.681Z,24.20
2022-12-08T01:17:10.657Z,27.80
2022-12-08T01:18:10.555Z,23.30
2022-12-08T01:19:10.648Z,27.10
2022-12-08T01:20:10.590Z,24.80
2022-12-08T01:21:10.512Z,25.30
2022-12-08T01:22:10.487Z,25.60
2022-12-08T01:23:10.511Z,25.80
2022-12-08T01:24:10.574Z,24.00
2022-12-08T01:25:10.458Z,27.80
2022-12-08T01:26:10.439Z,25.90
2022-12-08T01:27:10.411Z,25.40
2022-12-08T01:28:10.396Z,24.80
2022-12-08T01:29:10.422Z,24.50
2022-12-08T01:30:10.347Z,25.80
2022-12-08T01:31:10.367Z,27.50
2022-12-08T01:32:10.327Z,21.40
2022-12-08T01:33:10.299Z,23.30
2022-12-08T01:34:10.317Z,24.80
2022-12-08T01:35:10.262Z,22.90
2022-12-08T01:36:10.258Z,24.10
2022-12-08T01:37:10.236Z,23.00
2022-12-08T01:38:10.220Z,24.50
2022-12-08T01:39:10.232Z,23.30
2022-12-08T01:40:10.192Z,23.80
2022-12-08T01:41:10.162Z,22.90
2022-12-08T01:42:10.165Z,24.90
2022-12-08T01:43:10.129Z,23.20
2022-12-08T01:44:10.139Z,27.00
2022-12-08T01:45:10.144Z,23.90
2022-12-08T01:46:10.163Z,24.50
2022-12-08T01:47:10.075Z,25.00
2022-12-08T01:48:10.128Z,29.30
2022-12-08T01:49:10.057Z,24.30
2022-12-08T01:50:10.004Z,27.70
2022-12-08T01:51:10.010Z,23.20
2022-12-08T01:52:09.979Z,27.40
2022-12-08T01:53:09.979Z,24.50
2022-12-08T01:54:09.975Z,28.10
2022-12-08T01:55:09.933Z,24.90
2022-12-08T01:56:09.906Z,25.50
2022-12-08T01:57:09.900Z,23.80
2022-12-08T01:58:09.874Z,24.60
2022-12-08T01:59:09.883Z,24.00
2022-12-08T02:00:09.861Z,24.70
2022-12-08T02:01:09.874Z,26.80
2022-12-08T02:02:09.873Z,23.60
2022-12-08T02:03:09.789Z,24.10
2022-12-08T02:04:09.829Z,23.60
2022-12-08T02:05:09.769Z,25.60
2022-12-08T02:06:09.751Z,26.60
2022-12-08T02:07:09.718Z,27.50
2022-12-08T02:08:09.857Z,26.80
2022-12-08T02:09:09.678Z,26.80
2022-12-08T02:10:09.702Z,24.40
2022-12-08T02:11:09.674Z,22.00
2022-12-08T02:12:09.639Z,23.90
2022-12-08T02:13:09.608Z,24.20
2022-12-08T02:14:09.601Z,25.10
2022-12-08T02:15:09.615Z,21.80
2022-12-08T02:16:09.669Z,22.00
2022-12-08T02:17:09.549Z,23.50
2022-12-08T02:18:09.526Z,20.90
2022-12-08T02:19:30.167Z,22.60
2022-12-08T02:20:11.555Z,23.40
2022-12-08T02:21:09.494Z,23.80
2022-12-08T02:22:09.486Z,25.30
2022-12-08T02:23:09.450Z,25.10
2022-12-08T02:24:09.454Z,23.10
2022-12-08T02:25:09.448Z,22.70
2022-12-08T02:26:09.416Z,23.20
2022-12-08T02:27:09.379Z,25.50
2022-12-08T02:28:09.356Z,22.20
2022-12-08T02:29:09.349Z,21.80
2022-12-08T02:30:09.366Z,22.20
2022-12-08T02:31:09.426Z,22.70
2022-12-08T02:32:09.288Z,22.80
2022-12-08T02:33:09.269Z,24.70
2022-12-08T02:34:09.256Z,21.70
2022-12-08T02:35:09.282Z,26.20
2022-12-08T02:36:09.231Z,23.00
2022-12-08T02:37:09.200Z,25.00
2022-12-08T02:38:09.191Z,22.30
2022-12-08T02:39:09.176Z,24.30
2022-12-08T02:40:09.180Z,22.70
2022-12-08T02:41:10.142Z,24.50
2022-12-08T02:42:09.127Z,28.30
2022-12-08T02:43:09.113Z,22.60
2022-12-08T02:44:09.084Z,22.20
2022-12-08T02:45:09.114Z,22.80
2022-12-08T02:46:09.114Z,20.60
2022-12-08T02:47:09.045Z,23.30
2022-12-08T02:48:09.012Z,20.10
2022-12-08T02:49:08.997Z,21.30
2022-12-08T02:50:09.034Z,22.00
2022-12-08T02:51:08.975Z,21.10
2022-12-08T02:52:08.998Z,22.60
2022-12-08T02:53:54.201Z,20.40
2022-12-08T02:54:54.249Z,19.40
2022-12-08T02:55:54.194Z,21.00
2022-12-08T02:56:54.167Z,20.50
2022-12-08T02:57:54.156Z,24.20
2022-12-08T02:58:54.131Z,22.90
2022-12-08T02:59:54.143Z,20.20
2022-12-08T03:00:54.092Z,20.20
2022-12-08T03:01:54.174Z,20.00
2022-12-08T03:02:54.105Z,24.30
2022-12-08T03:03:54.035Z,21.30
2022-12-08T03:04:54.046Z,20.10
2022-12-08T03:05:54.003Z,21.40
2022-12-08T03:06:53.983Z,21.30
2022-12-08T03:07:54.031Z,21.60
2022-12-08T03:08:53.978Z,21.60
2022-12-08T03:09:53.983Z,18.80
2022-12-08T03:10:53.923Z,21.60
2022-12-08T03:11:53.887Z,20.70
2022-12-08T03:12:53.879Z,20.50
2022-12-08T03:13:53.852Z,22.20
2022-12-08T03:14:53.875Z,21.20
2022-12-08T03:15:53.875Z,18.70
2022-12-08T03:16:53.791Z,19.70
2022-12-08T03:17:53.784Z,16.50
2022-12-08T03:18:53.750Z,20.70
2022-12-08T03:19:53.768Z,19.90
2022-12-08T03:20:53.720Z,19.10
2022-12-08T03:21:53.703Z,21.40
2022-12-08T03:22:53.683Z,19.30
2022-12-08T03:23:53.666Z,21.20
2022-12-08T03:24:53.674Z,20.20
2022-12-08T03:25:53.622Z,20.20
2022-12-08T03:26:53.611Z,21.90
2022-12-08T03:27:53.586Z,20.30
2022-12-08T03:28:53.565Z,21.10
2022-12-08T03:29:53.631Z,19.90
2022-12-08T03:30:53.588Z,21.20
2022-12-08T03:31:53.518Z,19.70
2022-12-08T03:32:53.494Z,20.70
2022-12-08T03:33:53.481Z,18.80
2022-12-08T03:34:53.508Z,18.80
2022-12-08T03:35:53.452Z,21.80
2022-12-08T03:36:54.599Z,18.20
2022-12-08T03:37:54.568Z,20.20
2022-12-08T03:38:54.542Z,19.50
2022-12-08T03:39:54.574Z,18.10
2022-12-08T03:40:54.500Z,20.90
2022-12-08T03:41:54.490Z,19.10
2022-12-08T03:42:54.503Z,20.00
2022-12-08T03:43:54.474Z,19.10
2022-12-08T03:44:55.480Z,20.50
2022-12-08T03:45:54.424Z,18.00
2022-12-08T03:46:54.415Z,16.80
2022-12-08T03:47:54.381Z,22.10
2022-12-08T03:48:54.370Z,15.50
2022-12-08T03:49:54.400Z,18.20
2022-12-08T03:50:54.333Z,20.00
2022-12-08T03:51:54.304Z,19.70
2022-12-08T03:52:54.301Z,18.60
2022-12-08T03:53:54.268Z,18.60
2022-12-08T03:54:54.283Z,18.50
2022-12-08T03:55:54.287Z,19.60
2022-12-08T03:56:54.218Z,19.70
2022-12-08T03:57:54.195Z,19.50
2022-12-08T03:58:54.211Z,17.10
2022-12-08T03:59:54.198Z,18.30
2022-12-08T04:00:54.156Z,17.50
2022-12-08T04:01:54.157Z,17.90
2022-12-08T04:02:54.199Z,19.00
2022-12-08T04:03:54.101Z,17.70
2022-12-08T04:04:54.100Z,17.50
2022-12-08T04:05:54.044Z,22.00
2022-12-08T04:06:54.055Z,22.10
2022-12-08T04:07:54.042Z,17.20
2022-12-08T04:08:54.011Z,19.60
2022-12-08T04:09:54.016Z,21.10
2022-12-08T04:10:53.962Z,17.80
2022-12-08T04:11:53.942Z,21.00
2022-12-08T04:12:53.930Z,21.60
2022-12-08T04:13:53.903Z,20.40
2022-12-08T04:14:53.919Z,17.80
2022-12-08T04:15:53.938Z,19.50
2022-12-08T04:16:53.865Z,21.50
2022-12-08T04:17:53.836Z,18.10
2022-12-08T04:18:53.820Z,20.90
2022-12-08T04:19:53.833Z,21.90
2022-12-08T04:20:53.824Z,21.50
2022-12-08T04:21:53.795Z,20.30
2022-12-08T04:22:53.758Z,21.30
2022-12-08T04:23:57.645Z,19.90
2022-12-08T04:24:55.760Z,20.60
2022-12-08T04:25:53.746Z,22.00
2022-12-08T04:26:53.680Z,18.70
2022-12-08T04:27:53.679Z,21.70
2022-12-08T04:28:53.645Z,20.90
2022-12-08T04:29:53.665Z,21.70
2022-12-08T04:30:53.630Z,18.70
2022-12-08T04:31:53.596Z,23.90
2022-12-08T04:32:53.571Z,20.50
2022-12-08T04:33:53.562Z,19.10
2022-12-08T04:34:53.570Z,19.50
2022-12-08T04:35:53.637Z,18.10
2022-12-08T04:36:53.495Z,19.10
2022-12-08T04:37:53.488Z,19.80
2022-12-08T04:38:53.460Z,21.90
2022-12-08T04:39:53.478Z,19.40
2022-12-08T04:40:53.458Z,20.20
2022-12-08T04:41:53.425Z,21.00
2022-12-08T04:42:53.420Z,22.50
2022-12-08T04:43:53.381Z,20.60
2022-12-08T04:44:53.389Z,21.10
2022-12-08T04:45:53.461Z,22.80
2022-12-08T04:46:53.417Z,18.50
2022-12-08T04:47:53.303Z,19.20
2022-12-08T04:48:53.285Z,22.40
2022-12-08T04:49:53.321Z,20.40
2022-12-08T04:50:53.333Z,22.30
2022-12-08T04:51:53.244Z,20.70
2022-12-08T04:52:53.227Z,18.90
2022-12-08T04:53:53.195Z,21.30
2022-12-08T04:54:53.224Z,20.60
2022-12-08T04:55:53.272Z,21.00
2022-12-08T04:56:53.173Z,21.30
2022-12-08T04:57:53.141Z,21.50
2022-12-08T04:58:53.117Z,22.20
2022-12-08T04:59:53.128Z,20.40
2022-12-08T05:00:53.293Z,20.70
2022-12-08T05:01:53.253Z,21.10
2022-12-08T05:02:53.153Z,21.90
2022-12-08T05:03:53.056Z,20.50
2022-12-08T05:04:53.071Z,22.20
2022-12-08T05:05:53.016Z,21.10
2022-12-08T05:06:52.985Z,19.60
2022-12-08T05:07:53.064Z,21.40
2022-12-08T05:08:52.943Z,19.40
2022-12-08T05:09:52.986Z,21.20
2022-12-08T05:10:52.904Z,18.60
2022-12-08T05:11:52.899Z,20.80
2022-12-08T05:12:52.877Z,20.60
2022-12-08T05:13:52.859Z,19.00
2022-12-08T05:14:52.872Z,20.00
2022-12-08T05:15:52.892Z,19.30
2022-12-08T05:16:52.838Z,18.30
2022-12-08T05:17:52.805Z,18.90
2022-12-08T05:18:52.766Z,19.10
2022-12-08T05:19:52.787Z,18.40
2022-12-08T05:20:52.736Z,17.80
2022-12-08T05:21:52.730Z,20.40
2022-12-08T05:22:52.706Z,20.70
2022-12-08T05:23:52.676Z,21.10
2022-12-08T05:24:52.736Z,22.30
2022-12-08T05:25:52.651Z,20.80
2022-12-08T05:26:52.630Z,23.70
2022-12-08T05:28:01.652Z,21.40
2022-12-08T05:28:53.622Z,22.40
2022-12-08T05:29:52.642Z,20.60
2022-12-08T05:30:52.565Z,20.40
2022-12-08T05:31:52.634Z,21.70
2022-12-08T05:32:52.528Z,22.00
2022-12-08T05:33:52.499Z,22.20
2022-12-08T05:34:52.527Z,22.00
2022-12-08T05:35:52.479Z,21.00
2022-12-08T05:36:52.539Z,22.40
2022-12-08T05:37:52.452Z,22.10
2022-12-08T05:38:52.424Z,23.90
2022-12-08T05:39:52.445Z,26.40
2022-12-08T05:40:52.416Z,22.40
2022-12-08T05:41:52.364Z,30.30
2022-12-08T05:42:52.366Z,26.80
2022-12-08T05:43:52.360Z,26.60
2022-12-08T05:44:52.370Z,24.30
2022-12-08T05:45:52.332Z,26.10
2022-12-08T05:46:52.277Z,24.60
2022-12-08T05:47:52.283Z,27.40
2022-12-08T05:48:52.254Z,29.80
2022-12-08T05:49:52.263Z,26.30
2022-12-08T05:50:52.235Z,24.80
2022-12-08T05:51:52.200Z,26.30
2022-12-08T05:52:52.169Z,23.90
2022-12-08T05:53:52.170Z,25.00
2022-12-08T05:54:52.176Z,25.60
2022-12-08T05:55:52.193Z,24.40
2022-12-08T05:56:52.124Z,22.30
2022-12-08T05:57:52.091Z,24.20
2022-12-08T05:58:52.072Z,24.40
2022-12-08T05:59:52.092Z,23.10
2022-12-08T06:00:52.081Z,24.60
2022-12-08T06:01:52.067Z,22.60
2022-12-08T06:02:52.161Z,24.60
2022-12-08T06:03:51.994Z,22.90
2022-12-08T06:04:52.016Z,23.30
2022-12-08T06:05:51.946Z,22.60
2022-12-08T06:06:51.937Z,24.50
2022-12-08T06:07:51.923Z,22.60
2022-12-08T06:08:51.915Z,24.50
2022-12-08T06:09:51.920Z,23.20
2022-12-08T06:10:51.869Z,22.50
2022-12-08T06:11:51.842Z,23.00
2022-12-08T06:12:51.831Z,24.80
2022-12-08T06:13:51.808Z,22.20
2022-12-08T06:14:51.848Z,26.90
2022-12-08T06:15:51.795Z,24.90
2022-12-08T06:16:51.824Z,23.80
2022-12-08T06:17:51.745Z,25.80
2022-12-08T06:18:51.737Z,22.70
2022-12-08T06:19:51.743Z,24.10
2022-12-08T06:21:23.589Z,22.70
2022-12-08T06:21:51.685Z,25.10
2022-12-08T06:22:51.661Z,25.60
2022-12-08T06:23:51.669Z,23.70
2022-12-08T06:24:51.616Z,26.30
2022-12-08T06:25:51.763Z,26.80
2022-12-08T06:26:51.592Z,25.00
2022-12-08T06:27:51.580Z,26.60
2022-12-08T06:28:51.567Z,26.60
2022-12-08T06:29:51.533Z,25.90
2022-12-08T06:30:51.552Z,25.00
2022-12-08T06:31:51.563Z,25.70
2022-12-08T06:32:51.484Z,24.90
2022-12-08T06:33:51.470Z,22.70
2022-12-08T06:34:51.447Z,25.60
2022-12-08T06:35:51.456Z,25.90
2022-12-08T06:36:51.411Z,23.20
2022-12-08T06:37:51.423Z,27.70
2022-12-08T06:38:51.401Z,27.20
2022-12-08T06:39:51.358Z,24.70
2022-12-08T06:40:51.373Z,24.10
2022-12-08T06:41:51.321Z,26.40
2022-12-08T06:42:51.314Z,26.50
2022-12-08T06:43:51.289Z,27.30
2022-12-08T06:44:51.281Z,27.90
2022-12-08T06:45:51.339Z,29.10
2022-12-08T06:46:51.252Z,26.70
2022-12-08T06:47:51.219Z,24.50
2022-12-08T06:48:51.216Z,25.20
2022-12-08T06:49:51.188Z,25.40
2022-12-08T06:50:51.204Z,27.70
2022-12-08T06:51:51.151Z,29.50
2022-12-08T06:53:02.745Z,26.90
2022-12-08T06:53:53.128Z,27.70
2022-12-08T06:54:51.098Z,26.90
2022-12-08T06:55:59.417Z,29.60
2022-12-08T06:56:53.057Z,27.40
2022-12-08T06:57:53.964Z,27.50
2022-12-08T06:58:52.919Z,28.10
2022-12-08T06:59:52.011Z,30.20
2022-12-08T07:00:51.050Z,27.50
2022-12-08T07:01:51.009Z,27.60
2022-12-08T07:02:51.021Z,26.80
2022-12-08T07:03:50.959Z,24.90
2022-12-08T07:04:50.918Z,28.60
2022-12-08T07:05:50.929Z,28.70
2022-12-08T07:06:50.895Z,27.80
2022-12-08T07:07:50.920Z,28.90
2022-12-08T07:08:50.862Z,29.30
2022-12-08T07:09:50.845Z,27.80
2022-12-08T07:10:50.859Z,26.90
2022-12-08T07:11:50.805Z,26.10
2022-12-08T07:12:50.784Z,27.20
2022-12-08T07:13:50.770Z,25.40
2022-12-08T07:14:50.751Z,24.20
2022-12-08T07:15:50.778Z,25.60
2022-12-08T07:16:50.782Z,24.90
2022-12-08T07:17:54.890Z,27.80
2022-12-08T07:18:52.748Z,24.20
2022-12-08T07:19:50.666Z,25.00
2022-12-08T07:20:50.685Z,22.40
2022-12-08T07:21:50.636Z,24.20
2022-12-08T07:22:50.716Z,23.30
2022-12-08T07:23:56.023Z,22.80
2022-12-08T07:24:52.585Z,29.80
2022-12-08T07:25:50.590Z,26.30
2022-12-08T07:26:50.576Z,25.90
2022-12-08T07:27:50.528Z,23.60
2022-12-08T07:28:50.511Z,22.70
2022-12-08T07:29:50.521Z,25.20
2022-12-08T07:30:50.532Z,23.60
2022-12-08T07:31:50.457Z,27.00
2022-12-08T07:32:50.436Z,23.40
2022-12-08T07:33:50.436Z,23.50
2022-12-08T07:34:50.417Z,23.80
2022-12-08T07:35:50.425Z,21.80
2022-12-08T07:36:50.411Z,24.50
2022-12-08T07:37:50.378Z,21.20
2022-12-08T07:38:50.332Z,20.70
2022-12-08T07:39:50.339Z,22.60
2022-12-08T07:40:50.348Z,19.90
2022-12-08T07:41:50.290Z,22.00
2022-12-08T07:42:50.269Z,21.80
2022-12-08T07:43:50.258Z,20.00
2022-12-08T07:44:50.232Z,21.30
2022-12-08T07:45:50.389Z,22.00
2022-12-08T07:46:50.203Z,21.10
2022-12-08T07:47:50.233Z,18.60
2022-12-08T07:48:50.164Z,21.00
2022-12-08T07:49:50.152Z,18.70
2022-12-08T07:50:50.173Z,18.10
2022-12-08T07:51:50.120Z,18.40
2022-12-08T07:52:50.114Z,18.70
2022-12-08T07:53:53.759Z,17.40
2022-12-08T07:54:51.109Z,16.10
2022-12-08T07:55:50.085Z,17.20
2022-12-08T07:56:50.023Z,16.30
2022-12-08T07:57:50.014Z,17.20
2022-12-08T07:58:50.015Z,19.00
2022-12-08T07:59:49.971Z,17.70
2022-12-08T08:00:50.056Z,16.00
2022-12-08T08:02:06.333Z,16.70
2022-12-08T08:02:51.986Z,18.40
2022-12-08T08:03:49.945Z,18.60
2022-12-08T08:04:49.972Z,16.00
2022-12-08T08:05:49.898Z,14.10
2022-12-08T08:06:49.862Z,14.00
2022-12-08T08:07:49.930Z,15.30
2022-12-08T08:08:49.812Z,14.80
2022-12-08T08:09:49.856Z,15.10
2022-12-08T08:10:49.823Z,14.20
2022-12-08T08:12:14.375Z,16.10
2022-12-08T08:12:51.759Z,14.70
2022-12-08T08:13:49.758Z,17.10
2022-12-08T08:14:49.714Z,16.50
2022-12-08T08:15:49.853Z,16.00
2022-12-08T08:16:49.776Z,14.80
2022-12-08T08:17:49.668Z,15.00
2022-12-08T08:18:49.644Z,14.90
2022-12-08T08:19:49.636Z,14.80
2022-12-08T08:20:49.653Z,16.70
2022-12-08T08:21:49.606Z,14.90
2022-12-08T08:22:49.578Z,15.70
2022-12-08T08:23:49.573Z,16.20
2022-12-08T08:24:50.683Z,15.30
2022-12-08T08:25:49.575Z,13.50
2022-12-08T08:26:49.510Z,13.70
2022-12-08T08:27:49.488Z,14.20
2022-12-08T08:28:49.481Z,14.70
2022-12-08T08:29:49.456Z,15.10
2022-12-08T08:30:49.503Z,13.70
2022-12-08T08:31:49.420Z,15.30
2022-12-08T08:32:49.409Z,14.20
2022-12-08T08:33:49.393Z,14.60
2022-12-08T08:34:49.430Z,14.50
2022-12-08T08:35:49.433Z,15.70
2022-12-08T08:36:49.374Z,16.70
2022-12-08T08:37:49.687Z,14.90
2022-12-08T08:38:49.309Z,15.00
2022-12-08T08:39:49.284Z,15.30
2022-12-08T08:40:49.321Z,14.20
2022-12-08T08:41:49.244Z,16.00
2022-12-08T08:42:49.239Z,14.20
2022-12-08T08:43:49.212Z,15.20
2022-12-08T08:44:49.197Z,16.00
2022-12-08T08:45:49.219Z,15.90
2022-12-08T08:46:49.223Z,14.60
2022-12-08T08:47:49.165Z,15.00
2022-12-08T08:48:49.126Z,15.00
2022-12-08T08:49:49.122Z,18.20
2022-12-08T08:50:49.155Z,16.50
2022-12-08T08:51:49.124Z,14.90
2022-12-08T08:52:49.058Z,16.40
2022-12-08T08:53:49.051Z,16.40
2022-12-08T08:54:49.049Z,16.30
2022-12-08T08:55:49.018Z,17.60
2022-12-08T08:56:49.020Z,15.80
2022-12-08T08:57:48.976Z,16.80
2022-12-08T08:58:48.959Z,17.60
2022-12-08T08:59:48.949Z,16.90
2022-12-08T09:00:48.918Z,16.80
2022-12-08T09:01:48.997Z,16.20
2022-12-08T09:02:48.900Z,17.20
2022-12-08T09:03:48.867Z,17.40
2022-12-08T09:04:48.993Z,17.60
2022-12-08T09:05:48.921Z,18.10
2022-12-08T09:06:48.851Z,18.50
2022-12-08T09:07:48.820Z,17.80
2022-12-08T09:08:48.791Z,17.80
2022-12-08T09:09:48.833Z,19.10
2022-12-08T09:10:48.766Z,16.50
2022-12-08T09:11:48.768Z,16.30
2022-12-08T09:12:48.727Z,15.10
2022-12-08T09:13:48.718Z,16.70
2022-12-08T09:14:48.685Z,16.10
2022-12-08T09:15:48.740Z,17.60
2022-12-08T09:16:48.875Z,18.30
2022-12-08T09:17:48.629Z,16.80
2022-12-08T09:18:48.617Z,16.10
2022-12-08T09:19:48.594Z,15.20
2022-12-08T09:20:48.575Z,17.20
2022-12-08T09:21:48.589Z,15.50
2022-12-08T09:22:48.541Z,16.90
2022-12-08T09:23:48.522Z,16.60
2022-12-08T09:24:48.503Z,17.80
2022-12-08T09:25:48.517Z,14.70
2022-12-08T09:26:48.508Z,14.50
2022-12-08T09:27:48.466Z,16.40
2022-12-08T09:28:48.431Z,17.10
2022-12-08T09:29:48.426Z,18.10
2022-12-08T09:30:48.455Z,14.50
2022-12-08T09:31:48.500Z,19.80
2022-12-08T09:32:48.364Z,17.60
2022-12-08T09:33:48.351Z,17.80
2022-12-08T09:34:52.006Z,15.70
2022-12-08T09:35:49.313Z,15.40
2022-12-08T09:36:48.339Z,17.00
2022-12-08T09:37:48.290Z,15.30
2022-12-08T09:38:48.275Z,17.20
2022-12-08T09:39:48.248Z,16.10
2022-12-08T09:40:48.240Z,16.60
2022-12-08T09:41:48.727Z,18.10
2022-12-08T09:42:49.202Z,14.90
2022-12-08T09:43:48.185Z,16.80
2022-12-08T09:44:48.167Z,16.50
2022-12-08T09:45:48.147Z,14.10
2022-12-08T09:46:48.271Z,14.80
2022-12-08T09:47:48.118Z,15.40
2022-12-08T09:48:48.095Z,15.30
2022-12-08T09:49:48.080Z,14.60
2022-12-08T09:50:48.059Z,13.90
2022-12-08T09:51:48.070Z,12.80
2022-12-08T09:52:48.023Z,11.80
2022-12-08T09:53:48.026Z,11.10
2022-12-08T09:54:48.074Z,11.20
2022-12-08T09:55:48.048Z,11.60
2022-12-08T09:56:48.061Z,10.80
2022-12-08T09:57:52.991Z,10.50
2022-12-08T09:58:49.984Z,11.40
2022-12-08T09:59:48.020Z,9.70
2022-12-08T10:00:47.960Z,9.00
2022-12-08T10:01:48.052Z,10.20
2022-12-08T10:02:47.901Z,9.60
2022-12-08T10:03:47.933Z,9.90
2022-12-08T10:04:47.929Z,9.60
2022-12-08T10:05:47.886Z,9.40
2022-12-08T10:06:47.916Z,9.90
2022-12-08T10:07:47.868Z,10.10
2022-12-08T10:08:47.836Z,10.30
2022-12-08T10:09:47.729Z,8.40
2022-12-08T10:10:47.711Z,8.50
2022-12-08T10:11:48.044Z,8.70
2022-12-08T10:12:47.866Z,8.10
2022-12-08T10:13:47.944Z,7.50
2022-12-08T10:14:47.791Z,8.90
2022-12-08T10:15:47.853Z,8.90
2022-12-08T10:16:47.823Z,9.10
2022-12-08T10:17:47.672Z,7.50
2022-12-08T10:18:47.704Z,9.80
2022-12-08T10:19:47.638Z,7.90
2022-12-08T10:20:47.699Z,8.50
2022-12-08T10:21:47.683Z,8.90
2022-12-08T10:22:47.587Z,8.30
2022-12-08T10:23:48.654Z,8.70
2022-12-08T10:24:47.616Z,8.30
2022-12-08T10:25:47.640Z,7.00
2022-12-08T10:26:47.580Z,7.50
2022-12-08T10:27:47.539Z,7.90
2022-12-08T10:28:47.579Z,8.20
2022-12-08T10:29:47.666Z,8.60
2022-12-08T10:30:47.524Z,8.30
2022-12-08T10:31:47.665Z,7.90
2022-12-08T10:32:47.454Z,8.30
2022-12-08T10:33:47.477Z,8.90
2022-12-08T10:34:51.040Z,7.40
2022-12-08T10:35:48.514Z,7.90
2022-12-08T10:36:47.417Z,8.20
2022-12-08T10:37:47.382Z,7.10
2022-12-08T10:38:47.376Z,9.00
2022-12-08T10:39:47.348Z,7.30
2022-12-08T10:40:47.269Z,7.30
2022-12-08T10:41:47.400Z,7.00
2022-12-08T10:42:47.301Z,6.50
2022-12-08T10:43:47.355Z,7.00
2022-12-08T10:44:47.376Z,7.70
2022-12-08T10:45:47.224Z,7.20
2022-12-08T10:46:47.373Z,7.60
2022-12-08T10:47:51.032Z,7.30
2022-12-08T10:48:49.186Z,7.50
2022-12-08T10:49:47.346Z,6.50
2022-12-08T10:50:47.247Z,7.40
2022-12-08T10:51:47.170Z,6.70
2022-12-08T10:52:47.108Z,7.10
2022-12-08T10:53:47.079Z,6.90
2022-12-08T10:54:47.084Z,6.80
2022-12-08T10:55:47.052Z,6.20
2022-12-08T10:56:46.951Z,6.70
2022-12-08T10:57:46.901Z,6.80
2022-12-08T10:58:46.888Z,6.80
2022-12-08T10:59:46.858Z,6.90
2022-12-08T11:00:46.954Z,6.80
2022-12-08T11:01:46.990Z,6.60
2022-12-08T11:02:46.836Z,7.40
2022-12-08T11:03:46.790Z,7.80
2022-12-08T11:04:46.779Z,7.20
2022-12-08T11:05:46.756Z,37.90
2022-12-08T11:06:46.774Z,151.00
2022-12-08T11:07:46.844Z,17.20
2022-12-08T11:08:46.709Z,27.00
2022-12-08T11:09:46.714Z,7.30
2022-12-08T11:10:46.679Z,8.00
2022-12-08T11:11:46.685Z,36.90
2022-12-08T11:12:46.633Z,34.30
2022-12-08T11:13:46.623Z,44.60
2022-12-08T11:14:46.601Z,21.70
2022-12-08T11:15:46.597Z,9.00
2022-12-08T11:16:46.650Z,6.30
2022-12-08T11:17:46.560Z,7.40
2022-12-08T11:18:46.553Z,7.90
2022-12-08T11:19:46.586Z,7.00
2022-12-08T11:20:46.502Z,13.40
2022-12-08T11:21:46.522Z,9.30
2022-12-08T11:22:46.468Z,78.20
2022-12-08T11:23:46.460Z,8.60
2022-12-08T11:24:46.428Z,6.30
2022-12-08T11:25:46.416Z,5.60
2022-12-08T11:26:46.431Z,5.50
2022-12-08T11:27:46.376Z,5.00
2022-12-08T11:28:46.377Z,4.20
2022-12-08T11:29:46.365Z,5.20
2022-12-08T11:30:46.341Z,6.10
2022-12-08T11:31:46.487Z,14.50
2022-12-08T11:32:46.307Z,13.40
2022-12-08T11:33:46.297Z,8.00
2022-12-08T11:34:46.297Z,10.70
2022-12-08T11:35:46.256Z,15.60
2022-12-08T11:36:46.269Z,14.50
2022-12-08T11:37:46.204Z,5.60
2022-12-08T11:38:46.194Z,5.90
2022-12-08T11:39:46.181Z,5.40
2022-12-08T11:40:46.165Z,7.30
2022-12-08T11:41:46.186Z,9.40
2022-12-08T11:42:46.122Z,24.90
2022-12-08T11:43:46.121Z,100.90
2022-12-08T11:44:46.082Z,24.50
2022-12-08T11:45:46.123Z,7.30
2022-12-08T11:46:46.089Z,6.80
2022-12-08T11:47:47.360Z,6.50
2022-12-08T11:48:46.022Z,9.10
2022-12-08T11:50:46.067Z,18.90
2022-12-08T11:51:45.980Z,10.70
2022-12-08T11:52:45.993Z,6.80
2022-12-08T11:53:45.945Z,7.80
2022-12-08T11:54:45.940Z,6.40
2022-12-08T11:55:49.742Z,4.80
2022-12-08T11:56:46.924Z,5.30
2022-12-08T11:57:45.903Z,4.70
2022-12-08T11:58:45.853Z,4.70
2022-12-08T11:59:45.829Z,4.20
2022-12-08T12:00:45.841Z,4.00
2022-12-08T12:01:45.817Z,4.90
2022-12-08T12:02:45.926Z,4.80
2022-12-08T12:03:46.856Z,3.50
2022-12-08T12:04:45.757Z,4.60
2022-12-08T12:06:09.129Z,4.20
2022-12-08T12:06:54.709Z,4.40
2022-12-08T12:07:47.753Z,5.30
2022-12-08T12:08:45.800Z,5.60
2022-12-08T12:09:45.657Z,3.70
2022-12-08T12:10:45.643Z,3.00
2022-12-08T12:11:45.622Z,3.30
2022-12-08T12:12:45.638Z,3.30
2022-12-08T12:13:45.584Z,3.10
2022-12-08T12:14:45.603Z,3.50
2022-12-08T12:15:45.554Z,3.60
2022-12-08T12:16:45.589Z,3.00
2022-12-08T12:17:45.547Z,3.10
2022-12-08T12:18:45.503Z,2.60
2022-12-08T12:19:45.499Z,2.90
2022-12-08T12:20:45.465Z,2.20
2022-12-08T12:22:18.862Z,2.30
2022-12-08T12:22:45.434Z,3.10
2022-12-08T12:23:46.425Z,2.10
2022-12-08T12:24:45.414Z,2.10
2022-12-08T12:25:45.412Z,2.20
2022-12-08T12:26:45.372Z,2.20
2022-12-08T12:27:45.406Z,2.50
2022-12-08T12:28:45.401Z,2.00
2022-12-08T12:29:45.320Z,2.70
2022-12-08T12:30:45.364Z,2.50
2022-12-08T12:31:45.277Z,2.70
2022-12-08T12:32:45.310Z,1.90
2022-12-08T12:33:45.267Z,2.20
2022-12-08T12:34:45.240Z,2.00
2022-12-08T12:35:45.210Z,1.90
2022-12-08T12:36:45.197Z,1.90
2022-12-08T12:37:45.216Z,2.20
2022-12-08T12:38:45.184Z,2.10
2022-12-08T12:39:45.152Z,2.30
2022-12-08T12:40:45.120Z,2.60
2022-12-08T12:41:45.113Z,2.50
2022-12-08T12:42:45.119Z,1.70
2022-12-08T12:43:45.075Z,1.70
2022-12-08T12:44:45.062Z,2.30
2022-12-08T12:45:45.076Z,2.00
2022-12-08T12:46:45.022Z,1.70
2022-12-08T12:47:45.032Z,1.60
2022-12-08T12:48:44.985Z,2.40
2022-12-08T12:49:44.969Z,1.90
2022-12-08T12:50:44.949Z,1.70
2022-12-08T12:51:44.932Z,1.70
2022-12-08T12:52:44.977Z,2.30
2022-12-08T12:53:45.893Z,1.70
2022-12-08T12:54:44.875Z,1.70
2022-12-08T12:55:44.868Z,1.60
2022-12-08T12:56:44.854Z,2.70
2022-12-08T12:57:44.866Z,3.60
2022-12-08T12:58:44.820Z,1.70